sensor_id;sensor_type;location;lat;lon;timestamp;P1;P2;P0
62591;PMS5003;48659;41.622;2.276;2023-02-26T00:00:39;41;37;
62591;PMS5003;48659;41.622;2.276;2023-02-26T00:03:06;42;36;
62591;PMS5003;48659;41.622;2.276;2023-02-26T00:05:33;39;35;
62591;PMS5003;48659;41.622;2.276;2023-02-26T00:08:03;35;33;
62591;PMS5003;48659;41.622;2.276;2023-02-26T00:10:30;36;36;
62591;PMS5003;48659;41.622;2.276;2023-02-26T00:12:58;41;38;
62591;PMS5003;48659;41.622;2.276;2023-02-26T00:15:26;37;36;
62591;PMS5003;48659;41.622;2.276;2023-02-26T00:17:54;41;36;
62591;PMS5003;48659;41.622;2.276;2023-02-26T00:20:27;50;46;
62591;PMS5003;48659;41.622;2.276;2023-02-26T00:22:55;54;48;
62591;PMS5003;48659;41.622;2.276;2023-02-26T00:25:23;44;43;
62591;PMS5003;48659;41.622;2.276;2023-02-26T00:27:50;43;40;
62591;PMS5003;48659;41.622;2.276;2023-02-26T00:30:19;48;46;
62591;PMS5003;48659;41.622;2.276;2023-02-26T00:32:46;49;45;
62591;PMS5003;48659;41.622;2.276;2023-02-26T00:35:15;46;44;
62591;PMS5003;48659;41.622;2.276;2023-02-26T00:37:59;48;46;
62591;PMS5003;48659;41.622;2.276;2023-02-26T00:40:29;49;47;
62591;PMS5003;48659;41.622;2.276;2023-02-26T00:43:04;44;38;
62591;PMS5003;48659;41.622;2.276;2023-02-26T00:45:33;50;45;
62591;PMS5003;48659;41.622;2.276;2023-02-26T00:48:07;39;35;
62591;PMS5003;48659;41.622;2.276;2023-02-26T00:50:49;45;45;
62591;PMS5003;48659;41.622;2.276;2023-02-26T00:53:41;44;41;
62591;PMS5003;48659;41.622;2.276;2023-02-26T00:56:12;47;47;
62591;PMS5003;48659;41.622;2.276;2023-02-26T00:58:40;53;48;
62591;PMS5003;48659;41.622;2.276;2023-02-26T01:01:08;47;43;
62591;PMS5003;48659;41.622;2.276;2023-02-26T01:03:36;46;44;
62591;PMS5003;48659;41.622;2.276;2023-02-26T01:06:08;45;41;
62591;PMS5003;48659;41.622;2.276;2023-02-26T01:08:39;48;45;
62591;PMS5003;48659;41.622;2.276;2023-02-26T01:11:13;45;42;
62591;PMS5003;48659;41.622;2.276;2023-02-26T01:13:41;50;47;
62591;PMS5003;48659;41.622;2.276;2023-02-26T01:16:11;48;43;
62591;PMS5003;48659;41.622;2.276;2023-02-26T01:18:47;46;42;
62591;PMS5003;48659;41.622;2.276;2023-02-26T01:21:21;53;50;
62591;PMS5003;48659;41.622;2.276;2023-02-26T01:23:56;50;49;
62591;PMS5003;48659;41.622;2.276;2023-02-26T01:26:27;51;48;
62591;PMS5003;48659;41.622;2.276;2023-02-26T01:28:56;54;50;
62591;PMS5003;48659;41.622;2.276;2023-02-26T01:31:29;60;51;
62591;PMS5003;48659;41.622;2.276;2023-02-26T01:34:05;61;54;
62591;PMS5003;48659;41.622;2.276;2023-02-26T01:36:40;62;56;
62591;PMS5003;48659;41.622;2.276;2023-02-26T01:39:13;56;51;
62591;PMS5003;48659;41.622;2.276;2023-02-26T01:41:45;56;54;
62591;PMS5003;48659;41.622;2.276;2023-02-26T01:44:19;56;50;
62591;PMS5003;48659;41.622;2.276;2023-02-26T01:47:03;61;52;
62591;PMS5003;48659;41.622;2.276;2023-02-26T01:49:35;55;52;
62591;PMS5003;48659;41.622;2.276;2023-02-26T01:52:04;50;47;
62591;PMS5003;48659;41.622;2.276;2023-02-26T01:54:33;54;54;
62591;PMS5003;48659;41.622;2.276;2023-02-26T01:57:04;51;46;
62591;PMS5003;48659;41.622;2.276;2023-02-26T01:59:35;54;50;
62591;PMS5003;48659;41.622;2.276;2023-02-26T02:02:05;52;48;
62591;PMS5003;48659;41.622;2.276;2023-02-26T02:04:34;57;50;
62591;PMS5003;48659;41.622;2.276;2023-02-26T02:07:05;48;48;
62591;PMS5003;48659;41.622;2.276;2023-02-26T02:09:33;54;49;
62591;PMS5003;48659;41.622;2.276;2023-02-26T02:12:06;59;53;
62591;PMS5003;48659;41.622;2.276;2023-02-26T02:14:48;49;48;
62591;PMS5003;48659;41.622;2.276;2023-02-26T02:17:26;52;45;
62591;PMS5003;48659;41.622;2.276;2023-02-26T02:20:10;46;46;
62591;PMS5003;48659;41.622;2.276;2023-02-26T02:23:01;54;50;
62591;PMS5003;48659;41.622;2.276;2023-02-26T02:25:43;56;51;
62591;PMS5003;48659;41.622;2.276;2023-02-26T02:28:35;58;54;
62591;PMS5003;48659;41.622;2.276;2023-02-26T02:31:16;47;46;
62591;PMS5003;48659;41.622;2.276;2023-02-26T02:33:48;49;46;
62591;PMS5003;48659;41.622;2.276;2023-02-26T02:36:22;54;53;
62591;PMS5003;48659;41.622;2.276;2023-02-26T02:38:56;51;50;
62591;PMS5003;48659;41.622;2.276;2023-02-26T02:41:29;56;52;
62591;PMS5003;48659;41.622;2.276;2023-02-26T02:44:01;49;46;
62591;PMS5003;48659;41.622;2.276;2023-02-26T02:46:33;57;52;
62591;PMS5003;48659;41.622;2.276;2023-02-26T02:49:06;48;45;
62591;PMS5003;48659;41.622;2.276;2023-02-26T02:51:38;57;49;
62591;PMS5003;48659;41.622;2.276;2023-02-26T02:54:12;54;46;
62591;PMS5003;48659;41.622;2.276;2023-02-26T02:56:44;54;47;
62591;PMS5003;48659;41.622;2.276;2023-02-26T02:59:17;56;52;
62591;PMS5003;48659;41.622;2.276;2023-02-26T03:01:49;48;46;
62591;PMS5003;48659;41.622;2.276;2023-02-26T03:04:22;46;46;
62591;PMS5003;48659;41.622;2.276;2023-02-26T03:06:50;51;46;
62591;PMS5003;48659;41.622;2.276;2023-02-26T03:09:17;50;44;
62591;PMS5003;48659;41.622;2.276;2023-02-26T03:11:45;60;48;
62591;PMS5003;48659;41.622;2.276;2023-02-26T03:14:12;50;47;
62591;PMS5003;48659;41.622;2.276;2023-02-26T03:16:46;55;53;
62591;PMS5003;48659;41.622;2.276;2023-02-26T03:19:35;53;45;
62591;PMS5003;48659;41.622;2.276;2023-02-26T03:22:12;46;44;
62591;PMS5003;48659;41.622;2.276;2023-02-26T03:24:45;45;43;
62591;PMS5003;48659;41.622;2.276;2023-02-26T03:27:18;46;43;
62591;PMS5003;48659;41.622;2.276;2023-02-26T03:29:53;49;47;
62591;PMS5003;48659;41.622;2.276;2023-02-26T03:32:25;50;47;
62591;PMS5003;48659;41.622;2.276;2023-02-26T03:34:59;49;44;
62591;PMS5003;48659;41.622;2.276;2023-02-26T03:37:33;45;42;
62591;PMS5003;48659;41.622;2.276;2023-02-26T03:40:05;40;37;
62591;PMS5003;48659;41.622;2.276;2023-02-26T03:42:39;44;38;
62591;PMS5003;48659;41.622;2.276;2023-02-26T03:45:10;44;39;
62591;PMS5003;48659;41.622;2.276;2023-02-26T03:47:43;45;42;
62591;PMS5003;48659;41.622;2.276;2023-02-26T03:50:15;38;37;
62591;PMS5003;48659;41.622;2.276;2023-02-26T03:52:47;47;44;
62591;PMS5003;48659;41.622;2.276;2023-02-26T03:55:17;43;37;
62591;PMS5003;48659;41.622;2.276;2023-02-26T03:57:49;46;43;
62591;PMS5003;48659;41.622;2.276;2023-02-26T04:00:17;45;41;
62591;PMS5003;48659;41.622;2.276;2023-02-26T04:02:46;38;38;
62591;PMS5003;48659;41.622;2.276;2023-02-26T04:05:19;38;33;
62591;PMS5003;48659;41.622;2.276;2023-02-26T04:07:50;40;39;
62591;PMS5003;48659;41.622;2.276;2023-02-26T04:10:18;45;44;
62591;PMS5003;48659;41.622;2.276;2023-02-26T04:12:51;39;39;
62591;PMS5003;48659;41.622;2.276;2023-02-26T04:15:19;36;34;
62591;PMS5003;48659;41.622;2.276;2023-02-26T04:17:46;40;39;
62591;PMS5003;48659;41.622;2.276;2023-02-26T04:20:14;38;36;
62591;PMS5003;48659;41.622;2.276;2023-02-26T04:22:41;43;37;
62591;PMS5003;48659;41.622;2.276;2023-02-26T04:25:09;40;35;
62591;PMS5003;48659;41.622;2.276;2023-02-26T04:27:37;43;36;
62591;PMS5003;48659;41.622;2.276;2023-02-26T04:30:05;33;29;
62591;PMS5003;48659;41.622;2.276;2023-02-26T04:32:33;34;31;
62591;PMS5003;48659;41.622;2.276;2023-02-26T04:35:01;34;30;
62591;PMS5003;48659;41.622;2.276;2023-02-26T04:37:28;34;28;
62591;PMS5003;48659;41.622;2.276;2023-02-26T04:40:03;38;36;
62591;PMS5003;48659;41.622;2.276;2023-02-26T04:42:31;31;28;
62591;PMS5003;48659;41.622;2.276;2023-02-26T04:45:04;33;31;
62591;PMS5003;48659;41.622;2.276;2023-02-26T04:47:31;31;29;
62591;PMS5003;48659;41.622;2.276;2023-02-26T04:49:59;28;23;
62591;PMS5003;48659;41.622;2.276;2023-02-26T04:52:27;33;29;
62591;PMS5003;48659;41.622;2.276;2023-02-26T04:54:55;26;23;
62591;PMS5003;48659;41.622;2.276;2023-02-26T04:57:23;29;25;
62591;PMS5003;48659;41.622;2.276;2023-02-26T04:59:50;23;22;
62591;PMS5003;48659;41.622;2.276;2023-02-26T05:02:19;25;25;
62591;PMS5003;48659;41.622;2.276;2023-02-26T05:04:47;22;22;
62591;PMS5003;48659;41.622;2.276;2023-02-26T05:07:14;20;20;
62591;PMS5003;48659;41.622;2.276;2023-02-26T05:09:41;28;25;
62591;PMS5003;48659;41.622;2.276;2023-02-26T05:12:09;19;19;
62591;PMS5003;48659;41.622;2.276;2023-02-26T05:14:36;21;20;
62591;PMS5003;48659;41.622;2.276;2023-02-26T05:17:04;29;27;
62591;PMS5003;48659;41.622;2.276;2023-02-26T05:19:31;22;22;
62591;PMS5003;48659;41.622;2.276;2023-02-26T05:21:59;29;25;
62591;PMS5003;48659;41.622;2.276;2023-02-26T05:24:26;24;23;
62591;PMS5003;48659;41.622;2.276;2023-02-26T05:26:54;21;21;
62591;PMS5003;48659;41.622;2.276;2023-02-26T05:29:21;30;25;
62591;PMS5003;48659;41.622;2.276;2023-02-26T05:31:49;23;22;
62591;PMS5003;48659;41.622;2.276;2023-02-26T05:34:17;24;21;
62591;PMS5003;48659;41.622;2.276;2023-02-26T05:36:44;22;22;
62591;PMS5003;48659;41.622;2.276;2023-02-26T05:39:12;22;21;
62591;PMS5003;48659;41.622;2.276;2023-02-26T05:41:39;25;24;
62591;PMS5003;48659;41.622;2.276;2023-02-26T05:44:07;21;21;
62591;PMS5003;48659;41.622;2.276;2023-02-26T05:46:34;23;23;
62591;PMS5003;48659;41.622;2.276;2023-02-26T05:49:02;24;23;
62591;PMS5003;48659;41.622;2.276;2023-02-26T05:51:29;24;24;
62591;PMS5003;48659;41.622;2.276;2023-02-26T05:53:56;22;20;
62591;PMS5003;48659;41.622;2.276;2023-02-26T05:56:24;26;26;
62591;PMS5003;48659;41.622;2.276;2023-02-26T05:58:51;19;18;
62591;PMS5003;48659;41.622;2.276;2023-02-26T06:01:19;27;25;
62591;PMS5003;48659;41.622;2.276;2023-02-26T06:03:46;21;21;
62591;PMS5003;48659;41.622;2.276;2023-02-26T06:06:13;26;23;
62591;PMS5003;48659;41.622;2.276;2023-02-26T06:08:41;22;22;
62591;PMS5003;48659;41.622;2.276;2023-02-26T06:11:08;25;21;
62591;PMS5003;48659;41.622;2.276;2023-02-26T06:13:36;26;21;
62591;PMS5003;48659;41.622;2.276;2023-02-26T06:16:07;23;22;
62591;PMS5003;48659;41.622;2.276;2023-02-26T06:18:35;27;27;
62591;PMS5003;48659;41.622;2.276;2023-02-26T06:21:04;26;24;
62591;PMS5003;48659;41.622;2.276;2023-02-26T06:23:31;24;24;
62591;PMS5003;48659;41.622;2.276;2023-02-26T06:25:59;25;23;
62591;PMS5003;48659;41.622;2.276;2023-02-26T06:28:26;23;23;
62591;PMS5003;48659;41.622;2.276;2023-02-26T06:30:54;18;17;
62591;PMS5003;48659;41.622;2.276;2023-02-26T06:33:22;18;18;
62591;PMS5003;48659;41.622;2.276;2023-02-26T06:35:50;20;20;
62591;PMS5003;48659;41.622;2.276;2023-02-26T06:38:17;21;19;
62591;PMS5003;48659;41.622;2.276;2023-02-26T06:40:45;21;19;
62591;PMS5003;48659;41.622;2.276;2023-02-26T06:43:14;23;22;
62591;PMS5003;48659;41.622;2.276;2023-02-26T06:45:41;24;22;
62591;PMS5003;48659;41.622;2.276;2023-02-26T06:48:08;21;20;
62591;PMS5003;48659;41.622;2.276;2023-02-26T06:50:35;27;24;
62591;PMS5003;48659;41.622;2.276;2023-02-26T06:53:02;23;20;
62591;PMS5003;48659;41.622;2.276;2023-02-26T06:55:30;22;21;
62591;PMS5003;48659;41.622;2.276;2023-02-26T06:58:03;20;20;
62591;PMS5003;48659;41.622;2.276;2023-02-26T07:00:31;20;19;
62591;PMS5003;48659;41.622;2.276;2023-02-26T07:03:03;21;21;
62591;PMS5003;48659;41.622;2.276;2023-02-26T07:05:31;26;22;
62591;PMS5003;48659;41.622;2.276;2023-02-26T07:07:58;25;23;
62591;PMS5003;48659;41.622;2.276;2023-02-26T07:10:26;22;22;
62591;PMS5003;48659;41.622;2.276;2023-02-26T07:12:53;25;24;
62591;PMS5003;48659;41.622;2.276;2023-02-26T07:15:21;23;23;
62591;PMS5003;48659;41.622;2.276;2023-02-26T07:17:48;22;21;
62591;PMS5003;48659;41.622;2.276;2023-02-26T07:20:16;28;26;
62591;PMS5003;48659;41.622;2.276;2023-02-26T07:22:44;24;21;
62591;PMS5003;48659;41.622;2.276;2023-02-26T07:25:11;27;21;
62591;PMS5003;48659;41.622;2.276;2023-02-26T07:27:39;17;17;
62591;PMS5003;48659;41.622;2.276;2023-02-26T07:30:08;27;26;
62591;PMS5003;48659;41.622;2.276;2023-02-26T07:32:36;23;20;
62591;PMS5003;48659;41.622;2.276;2023-02-26T07:35:03;51;50;
62591;PMS5003;48659;41.622;2.276;2023-02-26T07:37:32;26;23;
62591;PMS5003;48659;41.622;2.276;2023-02-26T07:39:59;19;19;
62591;PMS5003;48659;41.622;2.276;2023-02-26T07:42:27;23;20;
62591;PMS5003;48659;41.622;2.276;2023-02-26T07:44:54;17;17;
62591;PMS5003;48659;41.622;2.276;2023-02-26T07:47:22;16;16;
62591;PMS5003;48659;41.622;2.276;2023-02-26T07:49:50;24;23;
62591;PMS5003;48659;41.622;2.276;2023-02-26T07:52:17;18;18;
62591;PMS5003;48659;41.622;2.276;2023-02-26T07:54:44;18;18;
62591;PMS5003;48659;41.622;2.276;2023-02-26T07:57:12;20;20;
62591;PMS5003;48659;41.622;2.276;2023-02-26T07:59:39;21;19;
62591;PMS5003;48659;41.622;2.276;2023-02-26T08:02:06;18;18;
62591;PMS5003;48659;41.622;2.276;2023-02-26T08:04:33;20;20;
62591;PMS5003;48659;41.622;2.276;2023-02-26T08:07:01;19;19;
62591;PMS5003;48659;41.622;2.276;2023-02-26T08:09:30;22;21;
62591;PMS5003;48659;41.622;2.276;2023-02-26T08:11:58;15;15;
62591;PMS5003;48659;41.622;2.276;2023-02-26T08:14:26;27;27;
62591;PMS5003;48659;41.622;2.276;2023-02-26T08:16:54;34;32;
62591;PMS5003;48659;41.622;2.276;2023-02-26T08:19:22;19;19;
62591;PMS5003;48659;41.622;2.276;2023-02-26T08:21:49;20;18;
62591;PMS5003;48659;41.622;2.276;2023-02-26T08:24:16;19;17;
62591;PMS5003;48659;41.622;2.276;2023-02-26T08:26:44;18;17;
62591;PMS5003;48659;41.622;2.276;2023-02-26T08:29:12;21;21;
62591;PMS5003;48659;41.622;2.276;2023-02-26T08:31:40;21;19;
62591;PMS5003;48659;41.622;2.276;2023-02-26T08:34:07;22;19;
62591;PMS5003;48659;41.622;2.276;2023-02-26T08:36:34;21;21;
62591;PMS5003;48659;41.622;2.276;2023-02-26T08:39:02;16;16;
62591;PMS5003;48659;41.622;2.276;2023-02-26T08:41:30;21;21;
62591;PMS5003;48659;41.622;2.276;2023-02-26T08:43:57;15;15;
62591;PMS5003;48659;41.622;2.276;2023-02-26T08:46:25;19;17;
62591;PMS5003;48659;41.622;2.276;2023-02-26T08:48:52;17;15;
62591;PMS5003;48659;41.622;2.276;2023-02-26T08:51:20;19;18;
62591;PMS5003;48659;41.622;2.276;2023-02-26T08:53:47;20;20;
62591;PMS5003;48659;41.622;2.276;2023-02-26T08:56:15;18;18;
62591;PMS5003;48659;41.622;2.276;2023-02-26T08:58:43;23;21;
62591;PMS5003;48659;41.622;2.276;2023-02-26T09:01:10;16;16;
62591;PMS5003;48659;41.622;2.276;2023-02-26T09:03:38;15;15;
62591;PMS5003;48659;41.622;2.276;2023-02-26T09:06:06;17;17;
62591;PMS5003;48659;41.622;2.276;2023-02-26T09:08:33;20;17;
62591;PMS5003;48659;41.622;2.276;2023-02-26T09:11:06;19;16;
62591;PMS5003;48659;41.622;2.276;2023-02-26T09:13:33;17;17;
62591;PMS5003;48659;41.622;2.276;2023-02-26T09:16:01;15;15;
62591;PMS5003;48659;41.622;2.276;2023-02-26T09:18:28;30;27;
62591;PMS5003;48659;41.622;2.276;2023-02-26T09:20:56;16;15;
62591;PMS5003;48659;41.622;2.276;2023-02-26T09:23:24;21;19;
62591;PMS5003;48659;41.622;2.276;2023-02-26T09:25:52;17;16;
62591;PMS5003;48659;41.622;2.276;2023-02-26T09:28:21;16;15;
62591;PMS5003;48659;41.622;2.276;2023-02-26T09:30:50;15;13;
62591;PMS5003;48659;41.622;2.276;2023-02-26T09:33:18;20;17;
62591;PMS5003;48659;41.622;2.276;2023-02-26T09:35:46;20;20;
62591;PMS5003;48659;41.622;2.276;2023-02-26T09:38:15;18;17;
62591;PMS5003;48659;41.622;2.276;2023-02-26T09:40:45;19;18;
62591;PMS5003;48659;41.622;2.276;2023-02-26T09:43:23;18;18;
62591;PMS5003;48659;41.622;2.276;2023-02-26T09:45:59;18;18;
62591;PMS5003;48659;41.622;2.276;2023-02-26T09:48:31;22;22;
62591;PMS5003;48659;41.622;2.276;2023-02-26T09:51:00;24;24;
62591;PMS5003;48659;41.622;2.276;2023-02-26T09:53:29;22;21;
62591;PMS5003;48659;41.622;2.276;2023-02-26T09:56:02;19;17;
62591;PMS5003;48659;41.622;2.276;2023-02-26T09:58:33;18;18;
62591;PMS5003;48659;41.622;2.276;2023-02-26T10:01:05;24;21;
62591;PMS5003;48659;41.622;2.276;2023-02-26T10:03:43;20;20;
62591;PMS5003;48659;41.622;2.276;2023-02-26T10:06:21;20;20;
62591;PMS5003;48659;41.622;2.276;2023-02-26T10:08:58;28;28;
62591;PMS5003;48659;41.622;2.276;2023-02-26T10:11:42;21;21;
62591;PMS5003;48659;41.622;2.276;2023-02-26T10:14:17;22;20;
62591;PMS5003;48659;41.622;2.276;2023-02-26T10:16:49;25;24;
62591;PMS5003;48659;41.622;2.276;2023-02-26T10:19:22;22;22;
62591;PMS5003;48659;41.622;2.276;2023-02-26T10:22:08;24;23;
62591;PMS5003;48659;41.622;2.276;2023-02-26T10:24:42;19;18;
62591;PMS5003;48659;41.622;2.276;2023-02-26T10:27:13;23;19;
62591;PMS5003;48659;41.622;2.276;2023-02-26T10:29:44;25;22;
62591;PMS5003;48659;41.622;2.276;2023-02-26T10:32:22;20;18;
62591;PMS5003;48659;41.622;2.276;2023-02-26T10:34:54;22;21;
62591;PMS5003;48659;41.622;2.276;2023-02-26T10:37:35;16;16;
62591;PMS5003;48659;41.622;2.276;2023-02-26T10:40:10;16;16;
62591;PMS5003;48659;41.622;2.276;2023-02-26T10:42:47;16;16;
62591;PMS5003;48659;41.622;2.276;2023-02-26T10:45:26;15;15;
62591;PMS5003;48659;41.622;2.276;2023-02-26T10:48:06;19;19;
62591;PMS5003;48659;41.622;2.276;2023-02-26T10:50:46;22;19;
62591;PMS5003;48659;41.622;2.276;2023-02-26T10:53:15;22;21;
62591;PMS5003;48659;41.622;2.276;2023-02-26T10:55:44;19;18;
62591;PMS5003;48659;41.622;2.276;2023-02-26T10:58:16;20;20;
62591;PMS5003;48659;41.622;2.276;2023-02-26T11:00:50;23;23;
62591;PMS5003;48659;41.622;2.276;2023-02-26T11:03:20;20;20;
62591;PMS5003;48659;41.622;2.276;2023-02-26T11:05:56;22;19;
62591;PMS5003;48659;41.622;2.276;2023-02-26T11:08:25;30;23;
62591;PMS5003;48659;41.622;2.276;2023-02-26T11:10:57;18;18;
62591;PMS5003;48659;41.622;2.276;2023-02-26T11:13:27;30;29;
62591;PMS5003;48659;41.622;2.276;2023-02-26T11:15:56;20;20;
62591;PMS5003;48659;41.622;2.276;2023-02-26T11:18:27;23;21;
62591;PMS5003;48659;41.622;2.276;2023-02-26T11:20:58;26;26;
62591;PMS5003;48659;41.622;2.276;2023-02-26T11:23:28;26;25;
62591;PMS5003;48659;41.622;2.276;2023-02-26T11:25:58;25;24;
62591;PMS5003;48659;41.622;2.276;2023-02-26T11:28:35;29;27;
62591;PMS5003;48659;41.622;2.276;2023-02-26T11:31:08;28;26;
62591;PMS5003;48659;41.622;2.276;2023-02-26T11:33:38;22;22;
62591;PMS5003;48659;41.622;2.276;2023-02-26T11:36:10;20;17;
62591;PMS5003;48659;41.622;2.276;2023-02-26T11:38:42;21;19;
62591;PMS5003;48659;41.622;2.276;2023-02-26T11:41:12;21;20;
62591;PMS5003;48659;41.622;2.276;2023-02-26T11:43:41;21;21;
62591;PMS5003;48659;41.622;2.276;2023-02-26T11:46:10;15;15;
62591;PMS5003;48659;41.622;2.276;2023-02-26T11:48:40;16;14;
62591;PMS5003;48659;41.622;2.276;2023-02-26T11:51:12;22;19;
62591;PMS5003;48659;41.622;2.276;2023-02-26T11:53:42;17;17;
62591;PMS5003;48659;41.622;2.276;2023-02-26T11:56:18;18;16;
62591;PMS5003;48659;41.622;2.276;2023-02-26T11:58:51;18;17;
62591;PMS5003;48659;41.622;2.276;2023-02-26T12:01:20;21;21;
62591;PMS5003;48659;41.622;2.276;2023-02-26T12:03:56;17;17;
62591;PMS5003;48659;41.622;2.276;2023-02-26T12:06:27;18;17;
62591;PMS5003;48659;41.622;2.276;2023-02-26T12:08:55;20;18;
62591;PMS5003;48659;41.622;2.276;2023-02-26T12:11:29;18;18;
62591;PMS5003;48659;41.622;2.276;2023-02-26T12:14:15;23;21;
62591;PMS5003;48659;41.622;2.276;2023-02-26T12:16:54;14;14;
62591;PMS5003;48659;41.622;2.276;2023-02-26T12:19:35;14;14;
62591;PMS5003;48659;41.622;2.276;2023-02-26T12:22:12;17;17;
62591;PMS5003;48659;41.622;2.276;2023-02-26T12:24:53;23;22;
62591;PMS5003;48659;41.622;2.276;2023-02-26T12:27:36;24;23;
62591;PMS5003;48659;41.622;2.276;2023-02-26T12:30:22;19;19;
62591;PMS5003;48659;41.622;2.276;2023-02-26T12:33:06;16;16;
62591;PMS5003;48659;41.622;2.276;2023-02-26T12:35:45;18;17;
62591;PMS5003;48659;41.622;2.276;2023-02-26T12:38:24;17;16;
62591;PMS5003;48659;41.622;2.276;2023-02-26T12:42:03;15;15;
62591;PMS5003;48659;41.622;2.276;2023-02-26T12:44:47;16;16;
62591;PMS5003;48659;41.622;2.276;2023-02-26T12:47:34;23;21;
62591;PMS5003;48659;41.622;2.276;2023-02-26T12:50:17;19;19;
62591;PMS5003;48659;41.622;2.276;2023-02-26T12:53:05;23;19;
62591;PMS5003;48659;41.622;2.276;2023-02-26T12:55:45;24;23;
62591;PMS5003;48659;41.622;2.276;2023-02-26T12:58:34;17;17;
62591;PMS5003;48659;41.622;2.276;2023-02-26T13:01:14;18;18;
62591;PMS5003;48659;41.622;2.276;2023-02-26T13:03:56;16;16;
62591;PMS5003;48659;41.622;2.276;2023-02-26T13:06:39;19;18;
62591;PMS5003;48659;41.622;2.276;2023-02-26T13:09:26;15;15;
62591;PMS5003;48659;41.622;2.276;2023-02-26T13:12:02;19;18;
62591;PMS5003;48659;41.622;2.276;2023-02-26T13:14:46;18;17;
62591;PMS5003;48659;41.622;2.276;2023-02-26T13:17:21;20;20;
62591;PMS5003;48659;41.622;2.276;2023-02-26T13:19:55;15;15;
62591;PMS5003;48659;41.622;2.276;2023-02-26T13:22:28;18;16;
62591;PMS5003;48659;41.622;2.276;2023-02-26T13:25:00;23;20;
62591;PMS5003;48659;41.622;2.276;2023-02-26T13:27:31;32;31;
62591;PMS5003;48659;41.622;2.276;2023-02-26T13:30:05;19;18;
62591;PMS5003;48659;41.622;2.276;2023-02-26T13:32:44;17;17;
62591;PMS5003;48659;41.622;2.276;2023-02-26T13:35:18;19;19;
62591;PMS5003;48659;41.622;2.276;2023-02-26T13:37:48;22;22;
62591;PMS5003;48659;41.622;2.276;2023-02-26T13:40:53;21;19;
62591;PMS5003;48659;41.622;2.276;2023-02-26T13:43:37;20;19;
62591;PMS5003;48659;41.622;2.276;2023-02-26T13:46:19;20;19;
62591;PMS5003;48659;41.622;2.276;2023-02-26T13:49:03;21;21;
62591;PMS5003;48659;41.622;2.276;2023-02-26T13:51:38;27;22;
62591;PMS5003;48659;41.622;2.276;2023-02-26T13:54:20;33;33;
62591;PMS5003;48659;41.622;2.276;2023-02-26T13:57:07;19;18;
62591;PMS5003;48659;41.622;2.276;2023-02-26T13:59:48;19;17;
62591;PMS5003;48659;41.622;2.276;2023-02-26T14:02:43;20;19;
62591;PMS5003;48659;41.622;2.276;2023-02-26T14:05:51;24;23;
62591;PMS5003;48659;41.622;2.276;2023-02-26T14:08:24;18;18;
62591;PMS5003;48659;41.622;2.276;2023-02-26T14:10:55;17;15;
62591;PMS5003;48659;41.622;2.276;2023-02-26T14:13:31;13;10;
62591;PMS5003;48659;41.622;2.276;2023-02-26T14:16:09;13;13;
62591;PMS5003;48659;41.622;2.276;2023-02-26T14:18:40;13;12;
62591;PMS5003;48659;41.622;2.276;2023-02-26T14:21:48;18;14;
62591;PMS5003;48659;41.622;2.276;2023-02-26T14:24:18;20;20;
62591;PMS5003;48659;41.622;2.276;2023-02-26T14:26:50;16;16;
62591;PMS5003;48659;41.622;2.276;2023-02-26T14:29:36;18;18;
62591;PMS5003;48659;41.622;2.276;2023-02-26T14:32:14;18;18;
62591;PMS5003;48659;41.622;2.276;2023-02-26T14:34:49;16;16;
62591;PMS5003;48659;41.622;2.276;2023-02-26T14:37:19;15;15;
62591;PMS5003;48659;41.622;2.276;2023-02-26T14:39:52;17;16;
62591;PMS5003;48659;41.622;2.276;2023-02-26T14:42:26;16;16;
62591;PMS5003;48659;41.622;2.276;2023-02-26T14:45:01;16;14;
62591;PMS5003;48659;41.622;2.276;2023-02-26T14:47:35;16;15;
62591;PMS5003;48659;41.622;2.276;2023-02-26T14:50:05;16;16;
62591;PMS5003;48659;41.622;2.276;2023-02-26T14:52:38;20;19;
62591;PMS5003;48659;41.622;2.276;2023-02-26T14:55:19;21;21;
62591;PMS5003;48659;41.622;2.276;2023-02-26T14:58:10;22;20;
62591;PMS5003;48659;41.622;2.276;2023-02-26T15:01:15;20;19;
62591;PMS5003;48659;41.622;2.276;2023-02-26T15:04:07;18;16;
62591;PMS5003;48659;41.622;2.276;2023-02-26T15:06:50;22;21;
62591;PMS5003;48659;41.622;2.276;2023-02-26T15:09:31;21;21;
62591;PMS5003;48659;41.622;2.276;2023-02-26T15:12:13;23;23;
62591;PMS5003;48659;41.622;2.276;2023-02-26T15:15:09;24;23;
62591;PMS5003;48659;41.622;2.276;2023-02-26T15:17:51;22;21;
62591;PMS5003;48659;41.622;2.276;2023-02-26T15:20:37;27;26;
62591;PMS5003;48659;41.622;2.276;2023-02-26T15:23:17;28;28;
62591;PMS5003;48659;41.622;2.276;2023-02-26T15:25:54;26;24;
62591;PMS5003;48659;41.622;2.276;2023-02-26T15:28:24;25;25;
62591;PMS5003;48659;41.622;2.276;2023-02-26T15:30:58;23;23;
62591;PMS5003;48659;41.622;2.276;2023-02-26T15:33:26;22;21;
62591;PMS5003;48659;41.622;2.276;2023-02-26T15:35:55;29;29;
62591;PMS5003;48659;41.622;2.276;2023-02-26T15:38:25;27;27;
62591;PMS5003;48659;41.622;2.276;2023-02-26T15:40:55;31;30;
62591;PMS5003;48659;41.622;2.276;2023-02-26T15:43:29;29;27;
62591;PMS5003;48659;41.622;2.276;2023-02-26T15:46:04;28;25;
62591;PMS5003;48659;41.622;2.276;2023-02-26T15:48:33;27;25;
62591;PMS5003;48659;41.622;2.276;2023-02-26T15:51:03;22;22;
62591;PMS5003;48659;41.622;2.276;2023-02-26T15:53:34;27;27;
62591;PMS5003;48659;41.622;2.276;2023-02-26T15:56:05;26;25;
62591;PMS5003;48659;41.622;2.276;2023-02-26T15:58:35;23;21;
62591;PMS5003;48659;41.622;2.276;2023-02-26T16:01:06;25;23;
62591;PMS5003;48659;41.622;2.276;2023-02-26T16:03:34;22;22;
62591;PMS5003;48659;41.622;2.276;2023-02-26T16:06:04;27;22;
62591;PMS5003;48659;41.622;2.276;2023-02-26T16:08:36;25;21;
62591;PMS5003;48659;41.622;2.276;2023-02-26T16:11:04;20;20;
62591;PMS5003;48659;41.622;2.276;2023-02-26T16:13:33;27;27;
62591;PMS5003;48659;41.622;2.276;2023-02-26T16:16:05;26;22;
62591;PMS5003;48659;41.622;2.276;2023-02-26T16:18:38;23;23;
62591;PMS5003;48659;41.622;2.276;2023-02-26T16:21:08;20;19;
62591;PMS5003;48659;41.622;2.276;2023-02-26T16:23:43;18;18;
62591;PMS5003;48659;41.622;2.276;2023-02-26T16:26:15;24;22;
62591;PMS5003;48659;41.622;2.276;2023-02-26T16:28:55;24;23;
62591;PMS5003;48659;41.622;2.276;2023-02-26T16:31:26;24;23;
62591;PMS5003;48659;41.622;2.276;2023-02-26T16:34:20;19;19;
62591;PMS5003;48659;41.622;2.276;2023-02-26T16:36:53;25;24;
62591;PMS5003;48659;41.622;2.276;2023-02-26T16:39:22;23;23;
62591;PMS5003;48659;41.622;2.276;2023-02-26T16:42:07;26;24;
62591;PMS5003;48659;41.622;2.276;2023-02-26T16:44:44;26;25;
62591;PMS5003;48659;41.622;2.276;2023-02-26T16:47:14;19;19;
62591;PMS5003;48659;41.622;2.276;2023-02-26T16:49:43;16;16;
62591;PMS5003;48659;41.622;2.276;2023-02-26T16:52:13;20;19;
62591;PMS5003;48659;41.622;2.276;2023-02-26T16:54:44;19;18;